sensor_id;sensor_type;location;lat;lon;timestamp;P1;P2;P0
55549;PMS7003;41397;49.972;18.944;2024-01-30T00:02:39;168;146;80
55549;PMS7003;41397;49.972;18.944;2024-01-30T00:05:44;178;151;76
55549;PMS7003;41397;49.972;18.944;2024-01-30T00:08:45;183;162;94
55549;PMS7003;41397;49.972;18.944;2024-01-30T00:11:49;150;139;80
55549;PMS7003;41397;49.972;18.944;2024-01-30T00:14:51;201;169;92
55549;PMS7003;41397;49.972;18.944;2024-01-30T00:17:53;148;132;64
55549;PMS7003;41397;49.972;18.944;2024-01-30T00:20:54;195;158;82
55549;PMS7003;41397;49.972;18.944;2024-01-30T00:23:55;196;156;80
55549;PMS7003;41397;49.972;18.944;2024-01-30T00:26:57;181;145;77
55549;PMS7003;41397;49.972;18.944;2024-01-30T00:30:01;171;151;84
55549;PMS7003;41397;49.972;18.944;2024-01-30T00:33:03;162;145;81
55549;PMS7003;41397;49.972;18.944;2024-01-30T00:36:07;171;139;83
55549;PMS7003;41397;49.972;18.944;2024-01-30T00:39:10;185;149;81
55549;PMS7003;41397;49.972;18.944;2024-01-30T00:42:12;173;130;77
55549;PMS7003;41397;49.972;18.944;2024-01-30T00:45:14;196;164;88
55549;PMS7003;41397;49.972;18.944;2024-01-30T00:48:15;173;143;59
55549;PMS7003;41397;49.972;18.944;2024-01-30T00:51:17;155;128;74
55549;PMS7003;41397;49.972;18.944;2024-01-30T00:54:18;159;132;60
55549;PMS7003;41397;49.972;18.944;2024-01-30T00:57:19;159;139;81
55549;PMS7003;41397;49.972;18.944;2024-01-30T01:00:20;156;140;72
55549;PMS7003;41397;49.972;18.944;2024-01-30T01:03:27;142;127;67
55549;PMS7003;41397;49.972;18.944;2024-01-30T01:06:29;208;164;82
55549;PMS7003;41397;49.972;18.944;2024-01-30T01:09:30;159;139;78
55549;PMS7003;41397;49.972;18.944;2024-01-30T01:12:31;202;163;82
55549;PMS7003;41397;49.972;18.944;2024-01-30T01:15:32;191;149;79
55549;PMS7003;41397;49.972;18.944;2024-01-30T01:18:35;154;148;76
55549;PMS7003;41397;49.972;18.944;2024-01-30T01:21:36;136;128;73
55549;PMS7003;41397;49.972;18.944;2024-01-30T01:24:38;166;148;70
55549;PMS7003;41397;49.972;18.944;2024-01-30T01:27:39;170;138;79
55549;PMS7003;41397;49.972;18.944;2024-01-30T01:30:43;154;149;80
55549;PMS7003;41397;49.972;18.944;2024-01-30T01:33:44;178;150;77
55549;PMS7003;41397;49.972;18.944;2024-01-30T01:36:46;194;147;80
55549;PMS7003;41397;49.972;18.944;2024-01-30T01:39:47;194;168;92
55549;PMS7003;41397;49.972;18.944;2024-01-30T01:42:52;186;139;71
55549;PMS7003;41397;49.972;18.944;2024-01-30T01:45:54;165;131;76
55549;PMS7003;41397;49.972;18.944;2024-01-30T01:48:55;216;175;92
55549;PMS7003;41397;49.972;18.944;2024-01-30T01:51:57;177;154;84
55549;PMS7003;41397;49.972;18.944;2024-01-30T01:55:00;195;141;73
55549;PMS7003;41397;49.972;18.944;2024-01-30T01:58:01;156;130;71
55549;PMS7003;41397;49.972;18.944;2024-01-30T02:01:03;170;162;85
55549;PMS7003;41397;49.972;18.944;2024-01-30T02:04:06;160;142;72
55549;PMS7003;41397;49.972;18.944;2024-01-30T02:07:09;173;145;79
55549;PMS7003;41397;49.972;18.944;2024-01-30T02:10:10;151;130;70
55549;PMS7003;41397;49.972;18.944;2024-01-30T02:13:12;172;144;80
55549;PMS7003;41397;49.972;18.944;2024-01-30T02:16:13;144;139;81
55549;PMS7003;41397;49.972;18.944;2024-01-30T02:19:17;153;130;77
55549;PMS7003;41397;49.972;18.944;2024-01-30T02:22:19;175;140;76
55549;PMS7003;41397;49.972;18.944;2024-01-30T02:25:29;158;129;73
55549;PMS7003;41397;49.972;18.944;2024-01-30T02:28:33;174;148;84
55549;PMS7003;41397;49.972;18.944;2024-01-30T02:31:34;150;137;78
55549;PMS7003;41397;49.972;18.944;2024-01-30T02:34:35;180;144;82
55549;PMS7003;41397;49.972;18.944;2024-01-30T02:37:36;132;110;39
55549;PMS7003;41397;49.972;18.944;2024-01-30T02:40:37;206;177;100
55549;PMS7003;41397;49.972;18.944;2024-01-30T02:43:38;177;150;87
55549;PMS7003;41397;49.972;18.944;2024-01-30T02:46:40;154;134;76
55549;PMS7003;41397;49.972;18.944;2024-01-30T02:49:41;192;177;90
55549;PMS7003;41397;49.972;18.944;2024-01-30T02:52:42;230;197;104
55549;PMS7003;41397;49.972;18.944;2024-01-30T02:55:46;234;186;89
55549;PMS7003;41397;49.972;18.944;2024-01-30T02:58:47;182;144;57
55549;PMS7003;41397;49.972;18.944;2024-01-30T03:01:48;227;184;88
55549;PMS7003;41397;49.972;18.944;2024-01-30T03:04:50;225;189;105
55549;PMS7003;41397;49.972;18.944;2024-01-30T03:07:51;201;163;86
55549;PMS7003;41397;49.972;18.944;2024-01-30T03:10:52;225;167;97
55549;PMS7003;41397;49.972;18.944;2024-01-30T03:13:53;207;181;93
55549;PMS7003;41397;49.972;18.944;2024-01-30T03:16:54;220;164;83
55549;PMS7003;41397;49.972;18.944;2024-01-30T03:19:59;172;138;73
55549;PMS7003;41397;49.972;18.944;2024-01-30T03:23:00;226;181;90
55549;PMS7003;41397;49.972;18.944;2024-01-30T03:26:01;236;196;105
55549;PMS7003;41397;49.972;18.944;2024-01-30T03:29:07;231;186;105
55549;PMS7003;41397;49.972;18.944;2024-01-30T03:32:08;221;168;89
55549;PMS7003;41397;49.972;18.944;2024-01-30T03:35:10;212;186;89
55549;PMS7003;41397;49.972;18.944;2024-01-30T03:38:11;225;191;101
55549;PMS7003;41397;49.972;18.944;2024-01-30T03:41:12;238;184;100
55549;PMS7003;41397;49.972;18.944;2024-01-30T03:44:16;247;206;111
55549;PMS7003;41397;49.972;18.944;2024-01-30T03:47:17;228;196;102
55549;PMS7003;41397;49.972;18.944;2024-01-30T03:50:19;209;164;92
55549;PMS7003;41397;49.972;18.944;2024-01-30T03:53:20;190;169;91
55549;PMS7003;41397;49.972;18.944;2024-01-30T03:56:25;174;147;79
55549;PMS7003;41397;49.972;18.944;2024-01-30T03:59:26;193;180;105
55549;PMS7003;41397;49.972;18.944;2024-01-30T04:02:28;196;160;87
55549;PMS7003;41397;49.972;18.944;2024-01-30T04:05:29;189;166;88
55549;PMS7003;41397;49.972;18.944;2024-01-30T04:08:33;204;170;92
55549;PMS7003;41397;49.972;18.944;2024-01-30T04:11:34;164;143;71
55549;PMS7003;41397;49.972;18.944;2024-01-30T04:14:37;172;152;83
55549;PMS7003;41397;49.972;18.944;2024-01-30T04:17:39;169;147;74
55549;PMS7003;41397;49.972;18.944;2024-01-30T04:20:41;181;150;78
55549;PMS7003;41397;49.972;18.944;2024-01-30T04:23:43;176;130;76
55549;PMS7003;41397;49.972;18.944;2024-01-30T04:26:44;188;162;80
55549;PMS7003;41397;49.972;18.944;2024-01-30T04:29:45;155;130;69
55549;PMS7003;41397;49.972;18.944;2024-01-30T04:32:51;148;130;76
55549;PMS7003;41397;49.972;18.944;2024-01-30T04:35:52;154;134;73
55549;PMS7003;41397;49.972;18.944;2024-01-30T04:38:53;141;127;75
55549;PMS7003;41397;49.972;18.944;2024-01-30T04:41:54;139;122;64
55549;PMS7003;41397;49.972;18.944;2024-01-30T04:44:59;133;123;67
55549;PMS7003;41397;49.972;18.944;2024-01-30T04:48:01;152;125;71
55549;PMS7003;41397;49.972;18.944;2024-01-30T04:51:03;153;124;63
55549;PMS7003;41397;49.972;18.944;2024-01-30T04:54:05;134;116;61
55549;PMS7003;41397;49.972;18.944;2024-01-30T04:57:08;126;113;58
55549;PMS7003;41397;49.972;18.944;2024-01-30T05:00:12;146;119;66
55549;PMS7003;41397;49.972;18.944;2024-01-30T05:03:14;129;119;61
55549;PMS7003;41397;49.972;18.944;2024-01-30T05:06:25;144;116;69
55549;PMS7003;41397;49.972;18.944;2024-01-30T05:09:28;141;128;79
55549;PMS7003;41397;49.972;18.944;2024-01-30T05:12:35;131;110;63
55549;PMS7003;41397;49.972;18.944;2024-01-30T05:15:36;143;123;67
55549;PMS7003;41397;49.972;18.944;2024-01-30T05:18:37;154;114;63
55549;PMS7003;41397;49.972;18.944;2024-01-30T05:21:39;118;100;53
55549;PMS7003;41397;49.972;18.944;2024-01-30T05:24:43;101;96;55
55549;PMS7003;41397;49.972;18.944;2024-01-30T05:27:44;120;106;57
55549;PMS7003;41397;49.972;18.944;2024-01-30T05:30:46;117;82;47
55549;PMS7003;41397;49.972;18.944;2024-01-30T05:33:47;104;88;45
55549;PMS7003;41397;49.972;18.944;2024-01-30T05:36:51;106;99;55
55549;PMS7003;41397;49.972;18.944;2024-01-30T05:39:52;133;104;57
55549;PMS7003;41397;49.972;18.944;2024-01-30T05:42:54;128;111;57
55549;PMS7003;41397;49.972;18.944;2024-01-30T05:45:55;109;95;56
55549;PMS7003;41397;49.972;18.944;2024-01-30T05:49:00;138;121;73
55549;PMS7003;41397;49.972;18.944;2024-01-30T05:52:02;147;119;66
55549;PMS7003;41397;49.972;18.944;2024-01-30T05:55:04;142;126;63
55549;PMS7003;41397;49.972;18.944;2024-01-30T05:58:06;104;102;53
55549;PMS7003;41397;49.972;18.944;2024-01-30T06:01:08;153;138;71
55549;PMS7003;41397;49.972;18.944;2024-01-30T06:04:10;169;147;72
55549;PMS7003;41397;49.972;18.944;2024-01-30T06:07:11;142;123;64
55549;PMS7003;41397;49.972;18.944;2024-01-30T06:10:12;133;119;67
55549;PMS7003;41397;49.972;18.944;2024-01-30T06:13:16;133;120;66
55549;PMS7003;41397;49.972;18.944;2024-01-30T06:16:18;87;63;28
55549;PMS7003;41397;49.972;18.944;2024-01-30T06:19:22;137;111;64
55549;PMS7003;41397;49.972;18.944;2024-01-30T06:22:23;154;137;83
55549;PMS7003;41397;49.972;18.944;2024-01-30T06:25:25;158;134;74
55549;PMS7003;41397;49.972;18.944;2024-01-30T06:28:26;176;157;80
55549;PMS7003;41397;49.972;18.944;2024-01-30T06:31:27;173;154;79
55549;PMS7003;41397;49.972;18.944;2024-01-30T06:34:29;186;170;86
55549;PMS7003;41397;49.972;18.944;2024-01-30T06:37:33;176;143;83
55549;PMS7003;41397;49.972;18.944;2024-01-30T06:40:35;170;159;84
55549;PMS7003;41397;49.972;18.944;2024-01-30T06:43:37;186;158;81
55549;PMS7003;41397;49.972;18.944;2024-01-30T06:46:38;181;161;82
55549;PMS7003;41397;49.972;18.944;2024-01-30T06:49:42;184;151;87
55549;PMS7003;41397;49.972;18.944;2024-01-30T06:52:45;148;126;67
55549;PMS7003;41397;49.972;18.944;2024-01-30T06:55:46;177;145;71
55549;PMS7003;41397;49.972;18.944;2024-01-30T06:58:48;182;152;79
55549;PMS7003;41397;49.972;18.944;2024-01-30T07:01:50;164;153;81
55549;PMS7003;41397;49.972;18.944;2024-01-30T07:04:51;131;111;43
55549;PMS7003;41397;49.972;18.944;2024-01-30T07:07:53;177;155;74
55549;PMS7003;41397;49.972;18.944;2024-01-30T07:10:54;209;187;101
55549;PMS7003;41397;49.972;18.944;2024-01-30T07:13:59;223;203;97
55549;PMS7003;41397;49.972;18.944;2024-01-30T07:17:00;218;174;105
55549;PMS7003;41397;49.972;18.944;2024-01-30T07:20:02;214;175;95
55549;PMS7003;41397;49.972;18.944;2024-01-30T07:23:06;196;178;100
55549;PMS7003;41397;49.972;18.944;2024-01-30T07:26:08;224;184;99
55549;PMS7003;41397;49.972;18.944;2024-01-30T07:29:09;194;174;100
55549;PMS7003;41397;49.972;18.944;2024-01-30T07:32:11;185;165;92
55549;PMS7003;41397;49.972;18.944;2024-01-30T07:35:13;204;186;100
55549;PMS7003;41397;49.972;18.944;2024-01-30T07:38:16;219;165;94
55549;PMS7003;41397;49.972;18.944;2024-01-30T07:41:17;188;171;91
55549;PMS7003;41397;49.972;18.944;2024-01-30T07:44:18;192;167;91
55549;PMS7003;41397;49.972;18.944;2024-01-30T07:47:20;168;156;85
55549;PMS7003;41397;49.972;18.944;2024-01-30T07:50:24;191;155;83
55549;PMS7003;41397;49.972;18.944;2024-01-30T07:53:25;205;177;101
55549;PMS7003;41397;49.972;18.944;2024-01-30T07:56:27;176;139;67
55549;PMS7003;41397;49.972;18.944;2024-01-30T07:59:28;164;139;69
55549;PMS7003;41397;49.972;18.944;2024-01-30T08:02:33;149;129;73
55549;PMS7003;41397;49.972;18.944;2024-01-30T08:05:34;91;81;38
55549;PMS7003;41397;49.972;18.944;2024-01-30T08:08:35;112;104;61
55549;PMS7003;41397;49.972;18.944;2024-01-30T08:11:38;127;106;70
55549;PMS7003;41397;49.972;18.944;2024-01-30T08:14:41;164;150;85
55549;PMS7003;41397;49.972;18.944;2024-01-30T08:17:42;104;97;49
55549;PMS7003;41397;49.972;18.944;2024-01-30T08:20:45;105;84;53
55549;PMS7003;41397;49.972;18.944;2024-01-30T08:23:46;53;45;29
55549;PMS7003;41397;49.972;18.944;2024-01-30T08:26:49;42;36;23
55549;PMS7003;41397;49.972;18.944;2024-01-30T08:29:50;33;31;21
55549;PMS7003;41397;49.972;18.944;2024-01-30T08:32:52;27;26;18
55549;PMS7003;41397;49.972;18.944;2024-01-30T08:35:53;19;19;14
55549;PMS7003;41397;49.972;18.944;2024-01-30T08:38:57;23;23;16
55549;PMS7003;41397;49.972;18.944;2024-01-30T08:41:59;20;20;15
55549;PMS7003;41397;49.972;18.944;2024-01-30T08:45:00;20;20;11
55549;PMS7003;41397;49.972;18.944;2024-01-30T08:48:02;22;16;11
55549;PMS7003;41397;49.972;18.944;2024-01-30T08:51:05;20;20;12
55549;PMS7003;41397;49.972;18.944;2024-01-30T08:54:09;19;19;11
55549;PMS7003;41397;49.972;18.944;2024-01-30T08:57:10;22;15;10
55549;PMS7003;41397;49.972;18.944;2024-01-30T09:00:12;12;12;7
55549;PMS7003;41397;49.972;18.944;2024-01-30T09:03:14;16;16;12
55549;PMS7003;41397;49.972;18.944;2024-01-30T09:06:15;22;22;15
55549;PMS7003;41397;49.972;18.944;2024-01-30T09:09:17;16;16;11
55549;PMS7003;41397;49.972;18.944;2024-01-30T09:12:19;8;8;4
55549;PMS7003;41397;49.972;18.944;2024-01-30T09:15:21;12;10;4
55549;PMS7003;41397;49.972;18.944;2024-01-30T09:18:23;22;22;14
55549;PMS7003;41397;49.972;18.944;2024-01-30T09:21:24;20;20;12
55549;PMS7003;41397;49.972;18.944;2024-01-30T09:24:26;12;12;10
55549;PMS7003;41397;49.972;18.944;2024-01-30T09:27:29;15;15;11
55549;PMS7003;41397;49.972;18.944;2024-01-30T09:30:31;13;13;7
55549;PMS7003;41397;49.972;18.944;2024-01-30T09:33:32;16;16;11
55549;PMS7003;41397;49.972;18.944;2024-01-30T09:36:34;18;18;13
55549;PMS7003;41397;49.972;18.944;2024-01-30T09:39:37;12;12;7
55549;PMS7003;41397;49.972;18.944;2024-01-30T09:42:38;16;16;10
55549;PMS7003;41397;49.972;18.944;2024-01-30T09:45:43;16;15;10
55549;PMS7003;41397;49.972;18.944;2024-01-30T09:48:46;12;12;7
55549;PMS7003;41397;49.972;18.944;2024-01-30T09:51:48;17;17;13
55549;PMS7003;41397;49.972;18.944;2024-01-30T09:54:51;18;18;13
55549;PMS7003;41397;49.972;18.944;2024-01-30T09:57:53;7;7;2
55549;PMS7003;41397;49.972;18.944;2024-01-30T10:00:54;9;9;5
55549;PMS7003;41397;49.972;18.944;2024-01-30T10:03:55;13;13;11
55549;PMS7003;41397;49.972;18.944;2024-01-30T10:06:56;19;18;12
55549;PMS7003;41397;49.972;18.944;2024-01-30T10:09:59;11;11;10
55549;PMS7003;41397;49.972;18.944;2024-01-30T10:13:01;15;15;12
55549;PMS7003;41397;49.972;18.944;2024-01-30T10:16:03;19;19;11
55549;PMS7003;41397;49.972;18.944;2024-01-30T10:19:07;19;19;12
55549;PMS7003;41397;49.972;18.944;2024-01-30T10:22:09;17;17;12
55549;PMS7003;41397;49.972;18.944;2024-01-30T10:25:10;14;14;12
55549;PMS7003;41397;49.972;18.944;2024-01-30T10:28:11;11;11;7
55549;PMS7003;41397;49.972;18.944;2024-01-30T10:31:16;11;11;9
55549;PMS7003;41397;49.972;18.944;2024-01-30T10:34:19;14;14;9
55549;PMS7003;41397;49.972;18.944;2024-01-30T10:37:20;18;18;9
55549;PMS7003;41397;49.972;18.944;2024-01-30T10:40:28;20;20;14
55549;PMS7003;41397;49.972;18.944;2024-01-30T10:43:35;16;16;12
55549;PMS7003;41397;49.972;18.944;2024-01-30T10:46:42;15;15;10
55549;PMS7003;41397;49.972;18.944;2024-01-30T10:49:48;14;14;11
55549;PMS7003;41397;49.972;18.944;2024-01-30T10:52:52;14;14;11
55549;PMS7003;41397;49.972;18.944;2024-01-30T10:55:55;15;15;10
55549;PMS7003;41397;49.972;18.944;2024-01-30T10:59:03;16;16;11
55549;PMS7003;41397;49.972;18.944;2024-01-30T11:02:05;13;13;10
55549;PMS7003;41397;49.972;18.944;2024-01-30T11:05:07;17;17;10
55549;PMS7003;41397;49.972;18.944;2024-01-30T11:08:12;19;19;12
55549;PMS7003;41397;49.972;18.944;2024-01-30T11:11:14;17;17;10
55549;PMS7003;41397;49.972;18.944;2024-01-30T11:14:22;19;19;12
55549;PMS7003;41397;49.972;18.944;2024-01-30T11:17:27;12;12;9
55549;PMS7003;41397;49.972;18.944;2024-01-30T11:20:29;20;20;14
55549;PMS7003;41397;49.972;18.944;2024-01-30T11:23:36;17;17;10
55549;PMS7003;41397;49.972;18.944;2024-01-30T11:26:42;13;13;8
55549;PMS7003;41397;49.972;18.944;2024-01-30T11:29:43;21;21;16
55549;PMS7003;41397;49.972;18.944;2024-01-30T11:36:05;16;16;11
55549;PMS7003;41397;49.972;18.944;2024-01-30T11:39:07;15;15;10
55549;PMS7003;41397;49.972;18.944;2024-01-30T11:42:09;16;16;11
55549;PMS7003;41397;49.972;18.944;2024-01-30T11:45:11;12;12;8
55549;PMS7003;41397;49.972;18.944;2024-01-30T11:48:12;18;18;12
55549;PMS7003;41397;49.972;18.944;2024-01-30T11:51:13;13;13;11
55549;PMS7003;41397;49.972;18.944;2024-01-30T11:54:15;13;13;9
55549;PMS7003;41397;49.972;18.944;2024-01-30T11:57:17;17;17;13
55549;PMS7003;41397;49.972;18.944;2024-01-30T12:00:18;16;16;11
55549;PMS7003;41397;49.972;18.944;2024-01-30T12:03:21;16;16;10
55549;PMS7003;41397;49.972;18.944;2024-01-30T12:06:23;17;15;11
55549;PMS7003;41397;49.972;18.944;2024-01-30T12:09:24;13;13;11
55549;PMS7003;41397;49.972;18.944;2024-01-30T12:12:26;21;21;13
55549;PMS7003;41397;49.972;18.944;2024-01-30T12:15:28;14;14;10
55549;PMS7003;41397;49.972;18.944;2024-01-30T12:18:31;20;12;10
55549;PMS7003;41397;49.972;18.944;2024-01-30T12:21:33;15;15;13
55549;PMS7003;41397;49.972;18.944;2024-01-30T12:24:35;13;13;9
55549;PMS7003;41397;49.972;18.944;2024-01-30T12:27:36;13;13;9
55549;PMS7003;41397;49.972;18.944;2024-01-30T12:30:39;16;15;11
55549;PMS7003;41397;49.972;18.944;2024-01-30T12:33:40;21;21;12
55549;PMS7003;41397;49.972;18.944;2024-01-30T12:36:41;17;17;12
55549;PMS7003;41397;49.972;18.944;2024-01-30T12:39:42;9;9;5
55549;PMS7003;41397;49.972;18.944;2024-01-30T12:42:47;17;17;8
55549;PMS7003;41397;49.972;18.944;2024-01-30T12:45:52;23;16;11
55549;PMS7003;41397;49.972;18.944;2024-01-30T12:48:53;16;16;11
55549;PMS7003;41397;49.972;18.944;2024-01-30T12:51:55;18;18;13
55549;PMS7003;41397;49.972;18.944;2024-01-30T12:54:57;16;16;11
55549;PMS7003;41397;49.972;18.944;2024-01-30T12:57:58;14;14;10
55549;PMS7003;41397;49.972;18.944;2024-01-30T13:01:00;13;9;8
55549;PMS7003;41397;49.972;18.944;2024-01-30T13:04:01;22;22;15
55549;PMS7003;41397;49.972;18.944;2024-01-30T13:07:03;19;19;14
55549;PMS7003;41397;49.972;18.944;2024-01-30T13:10:05;19;17;14
55549;PMS7003;41397;49.972;18.944;2024-01-30T13:13:06;16;16;11
55549;PMS7003;41397;49.972;18.944;2024-01-30T13:16:09;14;14;12
55549;PMS7003;41397;49.972;18.944;2024-01-30T13:19:11;18;18;11
55549;PMS7003;41397;49.972;18.944;2024-01-30T13:22:12;14;14;11
55549;PMS7003;41397;49.972;18.944;2024-01-30T13:25:14;16;16;10
55549;PMS7003;41397;49.972;18.944;2024-01-30T13:28:15;13;13;11
55549;PMS7003;41397;49.972;18.944;2024-01-30T13:31:18;15;15;9
55549;PMS7003;41397;49.972;18.944;2024-01-30T13:34:20;19;19;13
55549;PMS7003;41397;49.972;18.944;2024-01-30T13:37:22;20;16;11
55549;PMS7003;41397;49.972;18.944;2024-01-30T13:40:23;20;17;11
55549;PMS7003;41397;49.972;18.944;2024-01-30T13:43:26;21;21;12
55549;PMS7003;41397;49.972;18.944;2024-01-30T13:46:28;14;14;10
55549;PMS7003;41397;49.972;18.944;2024-01-30T13:49:29;17;17;10
55549;PMS7003;41397;49.972;18.944;2024-01-30T13:52:30;6;6;5
55549;PMS7003;41397;49.972;18.944;2024-01-30T13:55:34;13;13;10
55549;PMS7003;41397;49.972;18.944;2024-01-30T13:58:36;12;12;10
55549;PMS7003;41397;49.972;18.944;2024-01-30T14:01:38;9;9;7
55549;PMS7003;41397;49.972;18.944;2024-01-30T14:04:39;14;14;9
55549;PMS7003;41397;49.972;18.944;2024-01-30T14:07:42;13;13;10
55549;PMS7003;41397;49.972;18.944;2024-01-30T14:10:44;13;13;10
55549;PMS7003;41397;49.972;18.944;2024-01-30T14:13:45;13;13;8
55549;PMS7003;41397;49.972;18.944;2024-01-30T14:16:46;12;12;11
55549;PMS7003;41397;49.972;18.944;2024-01-30T14:19:50;13;13;10
55549;PMS7003;41397;49.972;18.944;2024-01-30T14:22:52;17;15;9
55549;PMS7003;41397;49.972;18.944;2024-01-30T14:25:56;8;8;7
55549;PMS7003;41397;49.972;18.944;2024-01-30T14:28:57;7;7;6
55549;PMS7003;41397;49.972;18.944;2024-01-30T14:31:58;6;6;4
55549;PMS7003;41397;49.972;18.944;2024-01-30T14:34:59;6;6;5
55549;PMS7003;41397;49.972;18.944;2024-01-30T14:38:01;10;10;8
55549;PMS7003;41397;49.972;18.944;2024-01-30T14:41:04;6;6;5
55549;PMS7003;41397;49.972;18.944;2024-01-30T14:44:06;12;12;9
55549;PMS7003;41397;49.972;18.944;2024-01-30T14:47:09;13;13;9
55549;PMS7003;41397;49.972;18.944;2024-01-30T14:50:10;11;11;9
55549;PMS7003;41397;49.972;18.944;2024-01-30T14:53:12;11;11;6
55549;PMS7003;41397;49.972;18.944;2024-01-30T14:56:14;16;15;12
55549;PMS7003;41397;49.972;18.944;2024-01-30T14:59:16;20;20;12
55549;PMS7003;41397;49.972;18.944;2024-01-30T15:02:17;28;26;18
55549;PMS7003;41397;49.972;18.944;2024-01-30T15:05:21;39;34;18
55549;PMS7003;41397;49.972;18.944;2024-01-30T15:08:25;33;28;18
55549;PMS7003;41397;49.972;18.944;2024-01-30T15:11:26;26;25;17
55549;PMS7003;41397;49.972;18.944;2024-01-30T15:14:28;38;28;19
55549;PMS7003;41397;49.972;18.944;2024-01-30T15:17:29;34;31;18
55549;PMS7003;41397;49.972;18.944;2024-01-30T15:20:31;26;24;14
55549;PMS7003;41397;49.972;18.944;2024-01-30T15:23:32;22;22;14
55549;PMS7003;41397;49.972;18.944;2024-01-30T15:26:34;17;17;12
55549;PMS7003;41397;49.972;18.944;2024-01-30T15:29:35;28;27;16
55549;PMS7003;41397;49.972;18.944;2024-01-30T15:32:39;26;25;16
55549;PMS7003;41397;49.972;18.944;2024-01-30T15:35:41;29;28;16
55549;PMS7003;41397;49.972;18.944;2024-01-30T15:38:42;27;27;18
55549;PMS7003;41397;49.972;18.944;2024-01-30T15:41:43;21;21;16
55549;PMS7003;41397;49.972;18.944;2024-01-30T15:44:48;23;23;16
55549;PMS7003;41397;49.972;18.944;2024-01-30T15:47:50;28;22;16
55549;PMS7003;41397;49.972;18.944;2024-01-30T15:50:52;18;18;13
55549;PMS7003;41397;49.972;18.944;2024-01-30T15:53:53;27;26;18
55549;PMS7003;41397;49.972;18.944;2024-01-30T15:56:56;36;29;20
55549;PMS7003;41397;49.972;18.944;2024-01-30T15:59:57;28;27;19
55549;PMS7003;41397;49.972;18.944;2024-01-30T16:02:59;50;36;20
55549;PMS7003;41397;49.972;18.944;2024-01-30T16:06:01;43;37;23
55549;PMS7003;41397;49.972;18.944;2024-01-30T16:09:04;32;29;22
55549;PMS7003;41397;49.972;18.944;2024-01-30T16:12:06;32;30;18
55549;PMS7003;41397;49.972;18.944;2024-01-30T16:15:07;34;31;20
55549;PMS7003;41397;49.972;18.944;2024-01-30T16:18:09;34;31;18
55549;PMS7003;41397;49.972;18.944;2024-01-30T16:21:12;23;23;17
55549;PMS7003;41397;49.972;18.944;2024-01-30T16:24:14;29;28;18
55549;PMS7003;41397;49.972;18.944;2024-01-30T16:27:32;25;25;15
55549;PMS7003;41397;49.972;18.944;2024-01-30T16:30:33;35;31;21
55549;PMS7003;41397;49.972;18.944;2024-01-30T16:33:35;43;33;22
55549;PMS7003;41397;49.972;18.944;2024-01-30T16:36:40;34;31;22
55549;PMS7003;41397;49.972;18.944;2024-01-30T16:39:44;40;35;22
55549;PMS7003;41397;49.972;18.944;2024-01-30T16:42:45;30;27;17
55549;PMS7003;41397;49.972;18.944;2024-01-30T16:45:46;45;36;23
55549;PMS7003;41397;49.972;18.944;2024-01-30T16:48:48;51;43;28
55549;PMS7003;41397;49.972;18.944;2024-01-30T16:51:52;48;30;11
55549;PMS7003;41397;49.972;18.944;2024-01-30T16:54:53;55;43;27
55549;PMS7003;41397;49.972;18.944;2024-01-30T16:57:55;57;47;29
55549;PMS7003;41397;49.972;18.944;2024-01-30T17:00:56;67;51;31
55549;PMS7003;41397;49.972;18.944;2024-01-30T17:03:58;65;50;31
55549;PMS7003;41397;49.972;18.944;2024-01-30T17:06:59;59;49;30
55549;PMS7003;41397;49.972;18.944;2024-01-30T17:10:03;65;52;32
55549;PMS7003;41397;49.972;18.944;2024-01-30T17:13:05;67;52;35
55549;PMS7003;41397;49.972;18.944;2024-01-30T17:16:06;66;54;32
55549;PMS7003;41397;49.972;18.944;2024-01-30T17:19:07;67;57;34
55549;PMS7003;41397;49.972;18.944;2024-01-30T17:22:09;104;84;45
55549;PMS7003;41397;49.972;18.944;2024-01-30T17:25:12;104;92;47
55549;PMS7003;41397;49.972;18.944;2024-01-30T17:28:14;107;79;41
55549;PMS7003;41397;49.972;18.944;2024-01-30T17:31:16;63;52;32
55549;PMS7003;41397;49.972;18.944;2024-01-30T17:34:17;58;47;31
55549;PMS7003;41397;49.972;18.944;2024-01-30T17:37:20;56;43;31
55549;PMS7003;41397;49.972;18.944;2024-01-30T17:40:21;53;44;33
55549;PMS7003;41397;49.972;18.944;2024-01-30T17:43:23;76;63;36
55549;PMS7003;41397;49.972;18.944;2024-01-30T17:46:25;74;61;39
55549;PMS7003;41397;49.972;18.944;2024-01-30T17:49:28;85;79;39
55549;PMS7003;41397;49.972;18.944;2024-01-30T17:52:30;98;73;41
55549;PMS7003;41397;49.972;18.944;2024-01-30T17:55:33;94;83;47
55549;PMS7003;41397;49.972;18.944;2024-01-30T17:58:34;110;97;46
55549;PMS7003;41397;49.972;18.944;2024-01-30T18:01:37;70;58;38
55549;PMS7003;41397;49.972;18.944;2024-01-30T18:04:39;60;50;31
55549;PMS7003;41397;49.972;18.944;2024-01-30T18:07:40;56;47;28
55549;PMS7003;41397;49.972;18.944;2024-01-30T18:10:44;64;51;31
55549;PMS7003;41397;49.972;18.944;2024-01-30T18:13:45;64;46;29
55549;PMS7003;41397;49.972;18.944;2024-01-30T18:16:47;60;50;30
55549;PMS7003;41397;49.972;18.944;2024-01-30T18:19:48;73;54;30
55549;PMS7003;41397;49.972;18.944;2024-01-30T18:22:49;60;46;32
55549;PMS7003;41397;49.972;18.944;2024-01-30T18:25:54;72;63;35
55549;PMS7003;41397;49.972;18.944;2024-01-30T18:29:00;65;51;32
55549;PMS7003;41397;49.972;18.944;2024-01-30T18:32:03;73;63;37
55549;PMS7003;41397;49.972;18.944;2024-01-30T18:35:05;58;45;30
55549;PMS7003;41397;49.972;18.944;2024-01-30T18:38:06;58;46;29
55549;PMS7003;41397;49.972;18.944;2024-01-30T18:41:07;53;43;28
55549;PMS7003;41397;49.972;18.944;2024-01-30T18:44:09;68;52;30
55549;PMS7003;41397;49.972;18.944;2024-01-30T18:47:10;60;47;30
55549;PMS7003;41397;49.972;18.944;2024-01-30T18:50:11;66;53;31
55549;PMS7003;41397;49.972;18.944;2024-01-30T18:53:14;65;54;32
55549;PMS7003;41397;49.972;18.944;2024-01-30T18:56:15;54;45;29
55549;PMS7003;41397;49.972;18.944;2024-01-30T18:59:20;68;53;32
55549;PMS7003;41397;49.972;18.944;2024-01-30T19:02:21;62;51;32